Time;durP1;ratioP1;P1;durP2;ratioP2;P2;SDS_P1;SDS_P2;PMS_P1;PMS_P2;Temp;Humidity;BMP_temperature;BMP_pressure;BME280_temperature;BME280_humidity;BME280_pressure;Samples;Min_cycle;Max_cycle;Signal;HPM_P1;HPM_P2
2024/02/23 00:02:15;;;;;;;0.50;0.50;;;7.50;99.90;;;;;;6216513;23;20071;-73
2024/02/23 00:04:41;;;;;;;1.27;0.87;;;7.40;99.90;;;;;;6216426;23;20001;-73
2024/02/23 00:07:07;;;;;;;0.43;0.43;;;7.40;99.90;;;;;;6216819;23;20082;-73
2024/02/23 00:09:33;;;;;;;0.60;0.53;;;7.40;99.90;;;;;;6216984;23;19997;-73
2024/02/23 00:11:59;;;;;;;0.70;0.50;;;7.40;99.90;;;;;;6216558;23;20009;-73
2024/02/23 00:14:24;;;;;;;1.50;0.67;;;7.30;99.90;;;;;;6215656;23;20007;-73
2024/02/23 00:16:50;;;;;;;0.50;0.50;;;7.30;99.90;;;;;;6215894;23;20013;-73
2024/02/23 00:19:17;;;;;;;0.50;0.50;;;7.30;99.90;;;;;;6216823;23;20080;-73
2024/02/23 00:21:47;;;;;;;1.17;0.80;;;7.30;99.90;;;;;;6215107;23;20005;-73
2024/02/23 00:24:13;;;;;;;0.50;0.50;;;7.20;99.90;;;;;;6214322;23;20001;-73
2024/02/23 00:26:38;;;;;;;0.77;0.60;;;7.20;99.90;;;;;;6215041;23;20304;-73
2024/02/23 00:29:04;;;;;;;0.60;0.50;;;7.20;99.90;;;;;;6214430;23;20000;-73
2024/02/23 00:31:29;;;;;;;0.80;0.50;;;7.20;99.90;;;;;;6215169;23;20011;-73
2024/02/23 00:33:55;;;;;;;0.50;0.50;;;7.20;99.90;;;;;;6214709;23;20028;-73
2024/02/23 00:36:20;;;;;;;0.70;0.60;;;7.20;99.90;;;;;;6214661;23;20004;-73
2024/02/23 00:38:46;;;;;;;0.87;0.53;;;7.20;99.90;;;;;;6215405;23;20027;-73
2024/02/23 00:41:11;;;;;;;0.50;0.50;;;7.20;99.90;;;;;;6214808;23;20004;-73
2024/02/23 00:43:40;;;;;;;0.77;0.60;;;7.20;99.90;;;;;;6214669;23;20420;-73
2024/02/23 00:46:07;;;;;;;0.50;0.50;;;7.20;99.90;;;;;;6214789;23;20067;-73
2024/02/23 00:48:32;;;;;;;1.03;0.60;;;7.20;99.90;;;;;;6214853;23;20330;-73
2024/02/23 00:50:58;;;;;;;0.50;0.50;;;7.20;99.90;;;;;;6214663;23;20094;-73
2024/02/23 00:53:23;;;;;;;0.50;0.50;;;7.30;99.90;;;;;;6215043;23;20155;-73
2024/02/23 00:55:49;;;;;;;0.57;0.50;;;7.30;99.90;;;;;;6214520;23;20071;-73
2024/02/23 00:58:15;;;;;;;0.57;0.57;;;7.20;99.90;;;;;;6214489;23;20435;-73
2024/02/23 01:00:41;;;;;;;0.60;0.60;;;7.20;99.90;;;;;;6214587;23;20003;-73
2024/02/23 01:03:07;;;;;;;0.50;0.50;;;7.20;99.90;;;;;;6214675;23;20009;-73
2024/02/23 01:05:33;;;;;;;0.50;0.50;;;7.30;99.90;;;;;;6213902;23;20007;-73
2024/02/23 01:07:58;;;;;;;0.87;0.60;;;7.30;99.90;;;;;;6214568;23;20020;-73
2024/02/23 01:10:24;;;;;;;1.07;0.60;;;7.40;99.90;;;;;;6215184;23;20008;-73
2024/02/23 01:12:49;;;;;;;1.03;0.60;;;7.30;99.90;;;;;;6214622;23;20387;-73
2024/02/23 01:15:15;;;;;;;1.67;1.10;;;7.30;99.90;;;;;;6214111;23;20001;-74
2024/02/23 01:17:40;;;;;;;0.73;0.50;;;7.30;99.90;;;;;;6214108;23;20015;-74
2024/02/23 01:20:06;;;;;;;0.73;0.50;;;7.40;99.90;;;;;;6214748;23;20140;-73
2024/02/23 01:22:32;;;;;;;0.50;0.50;;;7.40;99.90;;;;;;6214568;23;20375;-73
2024/02/23 01:24:57;;;;;;;0.87;0.60;;;7.40;99.90;;;;;;6213514;23;20261;-73
2024/02/23 01:27:23;;;;;;;0.60;0.60;;;7.30;99.90;;;;;;6214677;23;20043;-73
2024/02/23 01:29:48;;;;;;;0.90;0.60;;;7.30;99.90;;;;;;6214640;23;20021;-73
2024/02/23 01:32:14;;;;;;;0.60;0.60;;;7.20;99.90;;;;;;6214038;23;19997;-74
2024/02/23 01:34:39;;;;;;;0.53;0.53;;;7.20;99.90;;;;;;6213803;23;20001;-73
2024/02/23 01:37:05;;;;;;;0.60;0.60;;;7.10;99.90;;;;;;6214646;23;20020;-74
2024/02/23 01:39:30;;;;;;;0.40;0.40;;;7.00;99.90;;;;;;6214300;23;20147;-73
2024/02/23 01:41:56;;;;;;;0.57;0.57;;;7.00;99.90;;;;;;6214121;23;20008;-73
2024/02/23 01:44:21;;;;;;;0.70;0.60;;;7.00;99.90;;;;;;6213853;23;20323;-74
2024/02/23 01:46:47;;;;;;;0.60;0.60;;;6.90;99.90;;;;;;6213990;23;20070;-73
2024/02/23 01:49:13;;;;;;;0.50;0.50;;;6.90;99.90;;;;;;6213996;23;20016;-73
2024/02/23 01:51:39;;;;;;;0.60;0.60;;;6.80;99.90;;;;;;6214276;23;20008;-73
2024/02/23 01:54:06;;;;;;;0.77;0.50;;;6.80;99.90;;;;;;6213668;23;20438;-73
2024/02/23 01:56:32;;;;;;;1.10;0.50;;;6.70;99.90;;;;;;6214382;23;20008;-74
2024/02/23 01:58:59;;;;;;;0.40;0.40;;;6.70;99.90;;;;;;6214686;23;20024;-73
2024/02/23 02:01:25;;;;;;;0.40;0.40;;;6.60;99.90;;;;;;6214228;23;20016;-73
2024/02/23 02:03:50;;;;;;;0.60;0.60;;;6.60;99.90;;;;;;6213648;23;20004;-73
2024/02/23 02:06:16;;;;;;;0.50;0.50;;;6.60;99.90;;;;;;6213897;23;20001;-73
2024/02/23 02:08:41;;;;;;;0.40;0.40;;;6.60;99.90;;;;;;6214131;23;20051;-74
2024/02/23 02:11:07;;;;;;;0.40;0.40;;;6.50;99.90;;;;;;6214111;23;20015;-73
2024/02/23 02:13:32;;;;;;;0.43;0.43;;;6.50;99.90;;;;;;6214095;23;20000;-73
2024/02/23 02:16:04;;;;;;;0.73;0.40;;;6.40;99.90;;;;;;6213521;23;20525;-74
2024/02/23 02:18:30;;;;;;;0.40;0.40;;;6.50;99.90;;;;;;6214089;23;20071;-73
2024/02/23 02:20:57;;;;;;;0.43;0.43;;;6.40;99.90;;;;;;6214157;23;20131;-73
2024/02/23 02:23:23;;;;;;;0.50;0.50;;;6.40;99.90;;;;;;6213719;23;20009;-73
2024/02/23 02:25:56;;;;;;;0.40;0.40;;;6.40;99.90;;;;;;6213798;23;20000;-73
2024/02/23 02:28:22;;;;;;;0.53;0.50;;;6.30;99.90;;;;;;6213940;23;20012;-73
2024/02/23 02:30:49;;;;;;;0.40;0.40;;;6.30;99.90;;;;;;6214229;23;20009;-74
2024/02/23 02:33:14;;;;;;;0.40;0.40;;;6.30;99.90;;;;;;6214058;23;20004;-73
2024/02/23 02:35:40;;;;;;;0.40;0.40;;;6.30;99.90;;;;;;6213214;23;20001;-74
2024/02/23 02:38:05;;;;;;;0.50;0.50;;;6.30;99.90;;;;;;6213472;23;19996;-73
2024/02/23 02:40:31;;;;;;;0.50;0.50;;;6.30;99.90;;;;;;6213804;23;19996;-74
2024/02/23 02:42:57;;;;;;;0.50;0.50;;;6.30;99.90;;;;;;6213305;23;20004;-73
2024/02/23 02:45:23;;;;;;;0.50;0.50;;;6.30;99.90;;;;;;6212963;23;20008;-74
2024/02/23 02:47:48;;;;;;;0.97;0.50;;;6.30;99.90;;;;;;6213303;23;20012;-73
2024/02/23 02:50:14;;;;;;;0.83;0.50;;;6.30;99.90;;;;;;6213912;23;20005;-74
2024/02/23 02:52:39;;;;;;;0.87;0.50;;;6.30;99.90;;;;;;6214154;23;20008;-73
2024/02/23 02:55:05;;;;;;;1.07;0.50;;;6.40;99.90;;;;;;6213072;23;20168;-73
2024/02/23 02:57:31;;;;;;;0.77;0.73;;;6.40;99.90;;;;;;6213941;23;20004;-73
2024/02/23 02:59:56;;;;;;;0.53;0.53;;;6.30;99.90;;;;;;6213624;23;20008;-73
2024/02/23 03:02:22;;;;;;;1.50;0.63;;;6.40;99.90;;;;;;6213520;23;20009;-74
2024/02/23 03:04:48;;;;;;;1.03;0.60;;;6.40;99.90;;;;;;6213716;23;20008;-73
2024/02/23 03:07:14;;;;;;;0.50;0.50;;;6.40;99.90;;;;;;6213847;23;20000;-73
2024/02/23 03:09:40;;;;;;;0.87;0.50;;;6.40;99.90;;;;;;6213629;23;20012;-73
2024/02/23 03:12:05;;;;;;;0.50;0.50;;;6.30;99.90;;;;;;6213371;23;20004;-74
2024/02/23 03:14:31;;;;;;;0.60;0.60;;;6.40;99.90;;;;;;6212730;23;20008;-73
2024/02/23 03:16:57;;;;;;;0.93;0.50;;;6.40;99.90;;;;;;6213084;23;20016;-73
2024/02/23 03:19:23;;;;;;;0.63;0.40;;;6.40;99.90;;;;;;6213447;23;20012;-73
2024/02/23 03:21:49;;;;;;;1.57;0.60;;;6.50;99.90;;;;;;6213800;23;20009;-73
2024/02/23 03:24:14;;;;;;;0.73;0.50;;;6.50;99.90;;;;;;6212841;23;19997;-73
2024/02/23 03:26:40;;;;;;;0.53;0.53;;;6.50;99.90;;;;;;6213410;23;20108;-74
2024/02/23 03:29:05;;;;;;;3.17;0.60;;;6.50;99.90;;;;;;6212936;23;20004;-73
2024/02/23 03:31:31;;;;;;;0.77;0.50;;;6.40;99.90;;;;;;6213202;23;20001;-73
2024/02/23 03:33:56;;;;;;;0.53;0.53;;;6.30;99.90;;;;;;6212843;23;20304;-74
2024/02/23 03:36:22;;;;;;;1.07;0.50;;;6.30;99.90;;;;;;6213345;23;19997;-73
2024/02/23 03:38:47;;;;;;;0.73;0.60;;;6.30;99.90;;;;;;6213433;23;20001;-73
2024/02/23 03:41:13;;;;;;;0.60;0.60;;;6.30;99.90;;;;;;6213297;23;20012;-73
2024/02/23 03:43:38;;;;;;;1.33;0.60;;;6.30;99.90;;;;;;6213278;23;20419;-73
2024/02/23 03:46:06;;;;;;;1.00;0.63;;;6.20;99.90;;;;;;6212822;23;20012;-73
2024/02/23 03:48:32;;;;;;;1.13;0.60;;;6.10;99.90;;;;;;6213406;23;19997;-73
2024/02/23 03:50:57;;;;;;;0.60;0.60;;;6.00;99.90;;;;;;6213876;23;20005;-73
2024/02/23 03:53:23;;;;;;;2.17;0.70;;;5.90;99.90;;;;;;6213445;23;20445;-73
2024/02/23 03:55:49;;;;;;;0.73;0.60;;;5.80;99.90;;;;;;6212817;23;20316;-73
2024/02/23 03:58:14;;;;;;;0.60;0.60;;;5.70;99.90;;;;;;6215739;23;20076;-73
2024/02/23 04:00:40;;;;;;;1.80;0.80;;;5.60;99.90;;;;;;6215521;23;19997;-73
2024/02/23 04:03:05;;;;;;;0.70;0.70;;;5.60;99.90;;;;;;6214883;23;20486;-73
2024/02/23 04:05:31;;;;;;;0.77;0.70;;;5.50;99.90;;;;;;6215016;23;20016;-73
2024/02/23 04:07:57;;;;;;;1.23;0.70;;;5.40;99.90;;;;;;6214689;23;20338;-73
2024/02/23 04:10:22;;;;;;;1.23;0.60;;;5.40;99.90;;;;;;6215382;23;20091;-73
2024/02/23 04:12:48;;;;;;;1.20;0.70;;;5.40;99.90;;;;;;6215467;23;20071;-73
2024/02/23 04:15:14;;;;;;;0.60;0.60;;;5.30;99.90;;;;;;6214081;23;20486;-72
2024/02/23 04:17:39;;;;;;;2.00;0.60;;;5.30;99.90;;;;;;6214921;23;20012;-73
2024/02/23 04:20:09;;;;;;;1.10;0.60;;;5.30;99.90;;;;;;6214971;23;20344;-73
2024/02/23 04:22:36;;;;;;;0.90;0.80;;;5.30;99.90;;;;;;6215076;23;20085;-73
2024/02/23 04:25:01;;;;;;;1.73;0.77;;;5.30;99.90;;;;;;6213783;23;19997;-73
2024/02/23 04:27:27;;;;;;;0.60;0.60;;;5.30;99.90;;;;;;6214933;23;20019;-73
2024/02/23 04:29:52;;;;;;;1.37;0.70;;;5.30;99.90;;;;;;6215052;23;19997;-73
2024/02/23 04:32:18;;;;;;;0.97;0.67;;;5.30;99.90;;;;;;6214784;23;20000;-73
2024/02/23 04:34:43;;;;;;;0.77;0.53;;;5.30;99.90;;;;;;6214642;23;20054;-73
2024/02/23 04:37:09;;;;;;;0.60;0.60;;;5.30;99.90;;;;;;6214844;23;20001;-72
2024/02/23 04:39:34;;;;;;;0.60;0.60;;;5.30;99.90;;;;;;6215018;23;20099;-74
2024/02/23 04:42:00;;;;;;;1.43;0.60;;;5.30;99.90;;;;;;6214517;23;20005;-73
2024/02/23 04:44:25;;;;;;;2.43;0.57;;;5.30;99.90;;;;;;6214071;23;20016;-74
2024/02/23 04:46:51;;;;;;;0.53;0.53;;;5.30;99.90;;;;;;6214776;23;20073;-73
2024/02/23 04:49:17;;;;;;;0.50;0.50;;;5.30;99.90;;;;;;6215405;23;20039;-73
2024/02/23 04:51:42;;;;;;;1.17;0.60;;;5.20;99.90;;;;;;6214861;23;20009;-73
2024/02/23 04:54:08;;;;;;;0.60;0.60;;;5.20;99.90;;;;;;6214291;23;20066;-73
2024/02/23 04:56:33;;;;;;;0.50;0.50;;;5.20;99.90;;;;;;6215251;23;20001;-73
2024/02/23 04:58:59;;;;;;;1.27;0.57;;;5.10;99.90;;;;;;6214855;23;20386;-73
2024/02/23 05:01:24;;;;;;;0.87;0.70;;;5.10;99.90;;;;;;6213795;23;20054;-72
2024/02/23 05:03:50;;;;;;;2.63;0.67;;;5.00;99.90;;;;;;6214617;23;20036;-73
2024/02/23 05:06:16;;;;;;;0.57;0.50;;;5.00;99.90;;;;;;6213557;23;20004;-73
2024/02/23 05:08:41;;;;;;;0.77;0.50;;;5.00;99.90;;;;;;6214140;23;19993;-73
2024/02/23 05:11:07;;;;;;;3.70;0.70;;;5.00;99.90;;;;;;6214172;23;20011;-73
2024/02/23 05:13:32;;;;;;;0.60;0.60;;;5.00;99.90;;;;;;6214825;23;20004;-73
2024/02/23 05:15:58;;;;;;;0.90;0.70;;;4.90;99.90;;;;;;6212873;23;20008;-73
2024/02/23 05:18:23;;;;;;;0.60;0.60;;;4.90;99.90;;;;;;6214513;23;20001;-73
2024/02/23 05:20:49;;;;;;;0.50;0.50;;;4.90;99.90;;;;;;6214359;23;20055;-73
2024/02/23 05:23:15;;;;;;;1.27;0.70;;;4.90;99.90;;;;;;6214831;23;20009;-73
2024/02/23 05:25:41;;;;;;;1.13;0.60;;;4.90;99.90;;;;;;6213495;23;20004;-73
2024/02/23 05:28:07;;;;;;;0.77;0.67;;;4.90;99.90;;;;;;6214179;23;20011;-73
2024/02/23 05:30:32;;;;;;;1.10;0.87;;;4.90;99.90;;;;;;6214028;23;20384;-72
2024/02/23 05:32:58;;;;;;;1.20;0.80;;;4.90;99.90;;;;;;6213553;23;20431;-72
2024/02/23 05:35:24;;;;;;;1.27;0.80;;;4.90;99.90;;;;;;6213456;23;19997;-73
2024/02/23 05:37:50;;;;;;;1.43;0.63;;;4.90;99.90;;;;;;6214316;23;20356;-73
2024/02/23 05:40:16;;;;;;;1.17;0.77;;;4.90;99.90;;;;;;6214361;23;20079;-72
2024/02/23 05:42:41;;;;;;;0.63;0.63;;;4.90;99.90;;;;;;6213605;23;20013;-73
2024/02/23 05:45:11;;;;;;;0.80;0.70;;;4.80;99.90;;;;;;6213279;23;20012;-74
2024/02/23 05:47:37;;;;;;;1.20;0.77;;;4.80;99.90;;;;;;6213331;23;20416;-73
2024/02/23 05:50:04;;;;;;;2.20;0.60;;;4.80;99.90;;;;;;6213742;23;20427;-73
2024/02/23 05:52:31;;;;;;;1.47;0.70;;;4.80;99.90;;;;;;6214053;23;20429;-73
2024/02/23 05:54:57;;;;;;;2.57;0.90;;;4.80;99.90;;;;;;6211797;23;20458;-73
2024/02/23 05:57:22;;;;;;;3.27;0.80;;;4.80;99.90;;;;;;6212069;23;19997;-73
2024/02/23 05:59:48;;;;;;;1.90;0.70;;;4.80;99.90;;;;;;6212819;23;20362;-73
2024/02/23 06:02:13;;;;;;;2.63;0.70;;;4.80;99.90;;;;;;6211596;23;20040;-73
2024/02/23 06:04:40;;;;;;;1.07;0.70;;;4.80;99.90;;;;;;6212037;23;20000;-73
2024/02/23 06:07:06;;;;;;;0.73;0.70;;;4.80;99.90;;;;;;6213498;23;20016;-73
2024/02/23 06:09:31;;;;;;;1.00;0.80;;;4.80;99.90;;;;;;6214166;23;20005;-73
2024/02/23 06:11:57;;;;;;;1.70;0.60;;;4.80;99.90;;;;;;6213920;23;20413;-73
2024/02/23 06:14:23;;;;;;;1.63;0.70;;;4.80;99.90;;;;;;6212530;23;20499;-73
2024/02/23 06:16:49;;;;;;;1.43;0.80;;;4.80;99.90;;;;;;6212731;23;20017;-73
2024/02/23 06:19:15;;;;;;;1.00;0.90;;;4.80;99.90;;;;;;6213307;23;20059;-74
2024/02/23 06:21:41;;;;;;;0.70;0.70;;;4.80;99.90;;;;;;6213180;23;20016;-73
2024/02/23 06:24:08;;;;;;;0.80;0.70;;;4.80;99.90;;;;;;6212286;23;20035;-73
2024/02/23 06:26:34;;;;;;;2.27;0.90;;;4.80;99.90;;;;;;6210857;23;20009;-73
2024/02/23 06:28:59;;;;;;;0.70;0.70;;;4.80;99.90;;;;;;6212810;23;20469;-72
2024/02/23 06:31:25;;;;;;;1.67;0.83;;;4.70;99.90;;;;;;6212008;23;20004;-73
2024/02/23 06:33:51;;;;;;;1.90;0.70;;;4.80;99.90;;;;;;6212307;23;20027;-73
2024/02/23 06:36:18;;;;;;;0.93;0.70;;;4.80;99.90;;;;;;6212328;23;20079;-73
2024/02/23 06:38:44;;;;;;;1.70;0.70;;;4.80;99.90;;;;;;6213296;23;20039;-73
2024/02/23 06:41:11;;;;;;;1.17;0.60;;;4.80;99.90;;;;;;6212432;23;20005;-74
2024/02/23 06:43:36;;;;;;;2.87;0.73;;;4.80;99.90;;;;;;6212969;23;20008;-73
2024/02/23 06:46:09;;;;;;;1.00;0.80;;;4.80;99.90;;;;;;6211710;23;20012;-73
2024/02/23 06:48:35;;;;;;;1.47;0.70;;;4.80;99.90;;;;;;6212387;23;20398;-73
2024/02/23 06:51:01;;;;;;;1.23;0.90;;;4.80;99.90;;;;;;6212977;23;20624;-73
2024/02/23 06:53:27;;;;;;;1.23;1.00;;;4.80;99.90;;;;;;6213027;23;20039;-72
2024/02/23 06:55:53;;;;;;;1.20;0.90;;;4.80;99.90;;;;;;6211852;23;20434;-73
2024/02/23 06:58:18;;;;;;;0.60;0.60;;;4.80;99.90;;;;;;6212147;23;20451;-74
2024/02/23 07:00:44;;;;;;;3.77;0.90;;;4.80;99.90;;;;;;6212035;23;20063;-74
2024/02/23 07:03:09;;;;;;;2.27;0.97;;;4.80;99.90;;;;;;6212715;23;20001;-73
2024/02/23 07:05:35;;;;;;;1.70;0.83;;;4.90;99.90;;;;;;6212472;23;20000;-74
2024/02/23 07:08:01;;;;;;;2.97;0.90;;;4.90;99.90;;;;;;6213023;23;20024;-73
2024/02/23 07:10:27;;;;;;;5.27;0.83;;;4.80;99.90;;;;;;6213496;23;20011;-74
2024/02/23 07:12:55;;;;;;;2.97;1.17;;;4.80;99.90;;;;;;6212566;23;20017;-74
2024/02/23 07:15:21;;;;;;;0.77;0.70;;;4.80;99.90;;;;;;6212766;23;20008;-74
2024/02/23 07:17:47;;;;;;;1.03;0.73;;;4.90;99.90;;;;;;6212325;23;20012;-73
2024/02/23 07:20:13;;;;;;;1.57;0.90;;;4.90;99.90;;;;;;6213719;23;20027;-74
2024/02/23 07:22:39;;;;;;;1.53;0.70;;;4.80;99.90;;;;;;6212063;23;20005;-73
2024/02/23 07:25:05;;;;;;;2.20;0.87;;;4.80;99.90;;;;;;6212381;23;20485;-74
2024/02/23 07:27:32;;;;;;;3.83;1.10;;;4.80;99.90;;;;;;6212907;23;20023;-74
2024/02/23 07:29:57;;;;;;;2.00;1.03;;;4.80;99.90;;;;;;6212764;23;20028;-73
2024/02/23 07:32:23;;;;;;;1.30;0.90;;;4.90;99.90;;;;;;6213864;23;20001;-73
2024/02/23 07:34:49;;;;;;;1.50;0.80;;;4.90;99.90;;;;;;6214137;23;19997;-73
2024/02/23 07:37:15;;;;;;;2.03;0.73;;;4.90;99.90;;;;;;6214972;23;20001;-74
2024/02/23 07:39:40;;;;;;;1.67;0.80;;;4.90;99.90;;;;;;6214272;23;20131;-73
2024/02/23 07:42:08;;;;;;;1.57;0.87;;;4.90;99.90;;;;;;6214760;23;20005;-73
2024/02/23 07:44:33;;;;;;;2.03;0.90;;;4.90;99.90;;;;;;6211172;23;19996;-73
2024/02/23 07:46:59;;;;;;;3.03;1.00;;;4.90;99.90;;;;;;6213696;23;20015;-74
2024/02/23 07:49:25;;;;;;;1.73;1.13;;;4.90;99.90;;;;;;6214046;23;20008;-74
2024/02/23 07:51:50;;;;;;;1.47;1.03;;;4.90;99.90;;;;;;6214101;23;20000;-74
2024/02/23 07:54:16;;;;;;;2.00;0.93;;;4.90;99.90;;;;;;6213004;23;20031;-73
2024/02/23 07:56:41;;;;;;;2.23;1.10;;;4.90;99.90;;;;;;6211686;23;20001;-74
2024/02/23 07:59:07;;;;;;;2.47;1.13;;;5.00;99.90;;;;;;6214188;23;20075;-74
2024/02/23 08:01:34;;;;;;;1.27;1.00;;;5.00;99.90;;;;;;6213803;23;19996;-73
2024/02/23 08:03:59;;;;;;;2.97;1.60;;;5.00;99.90;;;;;;6213822;23;20434;-74
2024/02/23 08:06:25;;;;;;;2.23;1.03;;;5.10;99.90;;;;;;6212871;23;20005;-74
2024/02/23 08:08:53;;;;;;;2.67;1.30;;;5.10;99.90;;;;;;6213667;23;20005;-73
2024/02/23 08:11:19;;;;;;;3.20;1.03;;;5.20;99.90;;;;;;6214109;23;19997;-74
2024/02/23 08:13:44;;;;;;;4.10;1.00;;;5.20;99.90;;;;;;6213477;23;20020;-74
2024/02/23 08:16:10;;;;;;;2.50;1.10;;;5.30;99.90;;;;;;6213551;23;20058;-73
2024/02/23 08:18:36;;;;;;;2.03;1.10;;;5.30;99.90;;;;;;6213974;23;20063;-73
2024/02/23 08:21:02;;;;;;;1.70;1.03;;;5.30;99.90;;;;;;6213750;23;20431;-73
2024/02/23 08:23:29;;;;;;;2.33;1.10;;;5.30;99.90;;;;;;6213002;23;20362;-73
2024/02/23 08:25:56;;;;;;;3.07;1.10;;;5.30;99.90;;;;;;6213101;23;20528;-73
2024/02/23 08:28:23;;;;;;;2.60;1.20;;;5.40;99.90;;;;;;6214508;23;20080;-73
2024/02/23 08:30:48;;;;;;;3.40;0.90;;;5.40;99.90;;;;;;6214116;23;20052;-74
2024/02/23 08:33:14;;;;;;;1.97;1.07;;;5.50;99.90;;;;;;6213513;23;20007;-75
2024/02/23 08:35:40;;;;;;;3.33;1.30;;;5.50;99.90;;;;;;6213310;23;20026;-73
2024/02/23 08:38:05;;;;;;;3.97;1.30;;;5.50;99.90;;;;;;6214416;23;20058;-73
2024/02/23 08:40:31;;;;;;;2.83;1.20;;;5.50;99.90;;;;;;6214034;23;20004;-74
2024/02/23 08:42:56;;;;;;;3.60;1.43;;;5.70;99.90;;;;;;6213366;23;20163;-74
2024/02/23 08:45:22;;;;;;;4.70;1.40;;;5.70;99.90;;;;;;6213921;23;20051;-74
2024/02/23 08:47:47;;;;;;;4.43;1.40;;;5.80;99.90;;;;;;6213887;23;20008;-74
2024/02/23 08:50:14;;;;;;;2.67;1.40;;;5.80;99.90;;;;;;6212851;23;20000;-74
2024/02/23 08:52:39;;;;;;;4.43;1.20;;;5.90;99.90;;;;;;6209012;23;20075;-73
2024/02/23 08:55:05;;;;;;;2.83;1.07;;;5.90;99.90;;;;;;6211016;23;20560;-74
2024/02/23 08:57:31;;;;;;;2.20;1.10;;;6.00;99.90;;;;;;6211391;23;20398;-74
2024/02/23 08:59:57;;;;;;;3.23;1.10;;;5.90;99.90;;;;;;6211811;23;20051;-74
2024/02/23 09:02:24;;;;;;;5.40;1.20;;;5.90;99.90;;;;;;6212598;23;20005;-74
2024/02/23 09:04:49;;;;;;;3.40;1.10;;;5.90;99.90;;;;;;6212267;23;20004;-74
2024/02/23 09:07:15;;;;;;;3.40;1.50;;;5.80;99.90;;;;;;6213627;23;20587;-74
2024/02/23 09:09:40;;;;;;;3.97;1.20;;;5.80;99.90;;;;;;6213399;23;20004;-74
2024/02/23 09:12:10;;;;;;;3.23;1.10;;;5.80;99.90;;;;;;6213758;23;20009;-75
2024/02/23 09:14:37;;;;;;;3.00;1.03;;;5.80;99.90;;;;;;6212855;23;20051;-75
2024/02/23 09:17:04;;;;;;;4.37;1.33;;;5.80;99.90;;;;;;6212704;23;20070;-74
2024/02/23 09:19:29;;;;;;;5.07;1.00;;;5.80;99.90;;;;;;6213732;23;20066;-75
2024/02/23 09:21:55;;;;;;;6.27;1.97;;;5.80;99.90;;;;;;6213805;23;20012;-75
2024/02/23 09:24:20;;;;;;;2.07;1.30;;;5.80;99.90;;;;;;6213448;23;20005;-74
2024/02/23 09:26:47;;;;;;;9.10;1.97;;;5.80;99.90;;;;;;6213202;23;20435;-74
2024/02/23 09:29:13;;;;;;;2.97;1.10;;;5.80;99.90;;;;;;6213536;23;20494;-75
2024/02/23 09:31:38;;;;;;;1.80;1.03;;;5.80;99.90;;;;;;6213162;23;20039;-75
2024/02/23 09:34:04;;;;;;;3.17;1.20;;;5.70;99.90;;;;;;6212772;23;20001;-75
2024/02/23 09:36:30;;;;;;;3.37;1.20;;;5.70;99.90;;;;;;6211970;23;19997;-75
2024/02/23 09:38:55;;;;;;;3.43;1.17;;;5.70;99.90;;;;;;6213405;23;20779;-75
2024/02/23 09:41:23;;;;;;;5.00;1.40;;;5.70;99.90;;;;;;6212971;23;20164;-75
2024/02/23 09:43:49;;;;;;;3.30;1.10;;;5.70;99.90;;;;;;6214501;23;20009;-79
2024/02/23 09:46:16;;;;;;;3.03;1.00;;;5.70;99.90;;;;;;6213447;23;20084;-78
2024/02/23 09:48:43;;;;;;;3.60;1.27;;;5.70;99.90;;;;;;6213975;23;20024;-82
2024/02/23 09:51:13;;;;;;;2.27;0.87;;;5.70;99.90;;;;;;6211812;23;20004;-75
2024/02/23 09:53:39;;;;;;;3.70;1.17;;;5.80;99.90;;;;;;6212238;23;20336;-76
2024/02/23 09:56:05;;;;;;;4.07;1.13;;;5.80;99.90;;;;;;6212311;23;20061;-76
2024/02/23 09:58:32;;;;;;;3.43;1.30;;;5.80;99.90;;;;;;6213215;23;20050;-79
2024/02/23 10:00:59;;;;;;;3.67;1.17;;;5.80;99.90;;;;;;6212913;23;20431;-79
2024/02/23 10:03:31;;;;;;;3.80;1.07;;;5.80;99.90;;;;;;6213039;23;20020;-78
2024/02/23 10:05:57;;;;;;;2.57;1.10;;;5.90;99.90;;;;;;6212095;23;20070;-79
2024/02/23 10:08:22;;;;;;;3.70;0.90;;;5.90;99.90;;;;;;6214149;23;20028;-79
2024/02/23 10:10:51;;;;;;;1.90;0.97;;;5.90;99.90;;;;;;6212602;23;20378;-79
2024/02/23 10:13:20;;;;;;;5.87;1.10;;;6.00;99.90;;;;;;6213164;23;20140;-79
2024/02/23 10:15:47;;;;;;;3.10;1.00;;;6.00;99.90;;;;;;6211720;23;20008;-80
2024/02/23 10:18:12;;;;;;;2.40;1.13;;;6.10;99.90;;;;;;6213319;23;20319;-79
2024/02/23 10:20:38;;;;;;;4.90;1.23;;;6.10;99.90;;;;;;6212364;23;20028;-78
2024/02/23 10:23:04;;;;;;;3.10;0.97;;;6.20;99.90;;;;;;6212458;23;20067;-77
2024/02/23 10:25:32;;;;;;;3.13;1.20;;;6.20;99.90;;;;;;6212100;23;20300;-78
2024/02/23 10:27:59;;;;;;;9.83;1.20;;;6.20;99.90;;;;;;6213728;23;20000;-77
2024/02/23 10:30:26;;;;;;;4.40;1.10;;;6.30;99.90;;;;;;6212140;23;20439;-78
2024/02/23 10:32:56;;;;;;;5.00;1.33;;;6.40;99.90;;;;;;6212507;23;20051;-80
2024/02/23 10:35:24;;;;;;;2.43;1.10;;;6.40;99.90;;;;;;6211246;23;20455;-77
2024/02/23 10:37:52;;;;;;;5.77;1.43;;;6.50;99.90;;;;;;6212624;23;20008;-77
2024/02/23 10:40:18;;;;;;;4.07;1.10;;;6.50;99.90;;;;;;6212283;23;20007;-78
2024/02/23 10:42:51;;;;;;;1.87;1.10;;;6.60;99.90;;;;;;6211824;23;20016;-78
2024/02/23 10:45:18;;;;;;;3.67;1.40;;;6.70;99.90;;;;;;6212419;23;20012;-78
2024/02/23 10:47:44;;;;;;;4.07;0.90;;;6.70;99.90;;;;;;6212281;23;20008;-77
2024/02/23 10:50:11;;;;;;;3.67;0.87;;;6.60;99.90;;;;;;6211983;23;20001;-77
2024/02/23 10:52:39;;;;;;;3.10;0.80;;;6.60;99.90;;;;;;6212364;23;19996;-78
2024/02/23 10:55:08;;;;;;;2.17;0.87;;;6.60;99.90;;;;;;6211823;23;20035;-78
2024/02/23 10:57:35;;;;;;;3.20;1.20;;;6.60;99.90;;;;;;6212318;23;20001;-77
2024/02/23 11:00:05;;;;;;;2.07;0.80;;;6.60;99.90;;;;;;6212498;23;20420;-77
2024/02/23 11:02:33;;;;;;;5.73;1.40;;;6.60;99.90;;;;;;6212367;23;20010;-78
2024/02/23 11:04:59;;;;;;;5.67;1.47;;;6.60;99.90;;;;;;6211850;23;20031;-77
2024/02/23 11:07:28;;;;;;;2.53;1.10;;;6.70;99.90;;;;;;6212986;23;20087;-75
2024/02/23 11:09:59;;;;;;;1.63;0.90;;;6.70;99.90;;;;;;6212363;23;20005;-75
2024/02/23 11:12:28;;;;;;;6.17;1.00;;;6.60;99.90;;;;;;6212554;23;20005;-75
2024/02/23 11:14:58;;;;;;;1.10;0.83;;;6.60;99.90;;;;;;6211882;23;20078;-75
2024/02/23 11:17:27;;;;;;;5.80;0.80;;;6.60;99.90;;;;;;6212115;23;20104;-75
2024/02/23 11:19:54;;;;;;;4.40;1.00;;;6.70;99.90;;;;;;6212688;23;20004;-75
2024/02/23 11:22:27;;;;;;;3.13;0.93;;;6.70;99.90;;;;;;6211361;23;20332;-75
2024/02/23 11:24:53;;;;;;;2.37;0.90;;;6.70;99.90;;;;;;6209622;23;20005;-75
2024/02/23 11:27:19;;;;;;;4.73;1.20;;;6.70;99.90;;;;;;6210521;23;20008;-75
2024/02/23 11:29:49;;;;;;;3.97;0.80;;;6.80;99.90;;;;;;6210593;23;20019;-75
2024/02/23 11:32:15;;;;;;;1.97;0.80;;;6.70;99.90;;;;;;6209953;23;20005;-75
2024/02/23 11:34:41;;;;;;;3.07;0.80;;;6.70;99.90;;;;;;6210177;23;20427;-75
2024/02/23 11:37:10;;;;;;;1.70;0.70;;;6.60;99.90;;;;;;6211112;23;20007;-75
2024/02/23 11:39:40;;;;;;;4.77;1.43;;;6.60;99.90;;;;;;6212649;23;20000;-75
2024/02/23 11:42:06;;;;;;;1.83;0.80;;;6.60;99.90;;;;;;6211818;23;20091;-75
2024/02/23 11:44:32;;;;;;;1.37;0.90;;;6.60;99.90;;;;;;6211973;23;20013;-75
2024/02/23 11:46:59;;;;;;;1.80;0.90;;;6.60;99.90;;;;;;6211472;23;20032;-75
2024/02/23 11:49:29;;;;;;;2.43;0.83;;;6.60;99.90;;;;;;6210997;23;20080;-75
2024/02/23 11:51:55;;;;;;;2.17;0.73;;;6.50;99.90;;;;;;6211505;23;20757;-75
2024/02/23 11:54:21;;;;;;;2.87;0.80;;;6.50;99.90;;;;;;6211389;23;20008;-75
2024/02/23 11:56:49;;;;;;;1.77;0.80;;;6.40;99.90;;;;;;6211877;23;20015;-75
2024/02/23 11:59:18;;;;;;;0.90;0.80;;;6.30;99.90;;;;;;6211777;23;20070;-75
2024/02/23 12:01:46;;;;;;;2.97;0.83;;;6.20;99.90;;;;;;6211909;23;20092;-75
2024/02/23 12:04:12;;;;;;;1.20;0.90;;;6.20;99.90;;;;;;6211675;23;20004;-75
2024/02/23 12:06:38;;;;;;;1.20;0.87;;;6.10;99.90;;;;;;6212204;23;20074;-75
2024/02/23 12:09:04;;;;;;;1.73;0.70;;;6.10;99.90;;;;;;6211938;23;20004;-75
2024/02/23 12:11:30;;;;;;;4.30;0.80;;;6.10;99.90;;;;;;6211854;23;20082;-75
2024/02/23 12:13:56;;;;;;;1.93;0.90;;;6.00;99.90;;;;;;6211891;23;20004;-75
2024/02/23 12:16:22;;;;;;;0.83;0.60;;;6.00;99.90;;;;;;6211310;23;20012;-75
2024/02/23 12:18:55;;;;;;;2.33;0.80;;;5.90;99.90;;;;;;6214303;23;20005;-75
2024/02/23 12:21:20;;;;;;;4.67;1.00;;;6.00;99.90;;;;;;6214306;23;20008;-75
2024/02/23 12:23:48;;;;;;;4.10;0.93;;;5.90;99.90;;;;;;6213412;23;20023;-75
2024/02/23 12:26:16;;;;;;;2.73;0.90;;;6.00;99.90;;;;;;6213407;23;20079;-75
2024/02/23 12:28:42;;;;;;;1.27;0.70;;;5.90;99.90;;;;;;6213262;23;20501;-75
2024/02/23 12:31:08;;;;;;;2.67;0.80;;;5.90;99.90;;;;;;6213710;23;20085;-75
2024/02/23 12:33:47;;;;;;;2.87;0.93;;;5.90;99.90;;;;;;6213923;23;20297;-75
2024/02/23 12:36:13;;;;;;;1.00;0.80;;;5.90;99.90;;;;;;6214098;23;20004;-76
2024/02/23 12:38:39;;;;;;;1.13;0.80;;;5.90;99.90;;;;;;6213833;23;20046;-76
2024/02/23 12:41:04;;;;;;;2.80;0.73;;;5.90;99.90;;;;;;6213589;23;20004;-76
2024/02/23 12:43:30;;;;;;;3.43;0.90;;;5.90;99.90;;;;;;6212832;23;20043;-76
2024/02/23 12:45:57;;;;;;;4.23;0.80;;;6.00;99.90;;;;;;6213140;23;20460;-76
2024/02/23 12:48:23;;;;;;;6.60;0.77;;;6.00;99.90;;;;;;6214258;23;20024;-75
2024/02/23 12:50:49;;;;;;;2.50;0.57;;;5.90;99.90;;;;;;6213621;23;20012;-75
2024/02/23 12:53:38;;;;;;;3.97;0.70;;;5.90;99.90;;;;;;6213856;23;20011;-75